Time;durP1;ratioP1;P1;durP2;ratioP2;P2;SDS_P1;SDS_P2;PMS_P1;PMS_P2;Temp;Humidity;BMP_temperature;BMP_pressure;BME280_temperature;BME280_humidity;BME280_pressure;Samples;Min_cycle;Max_cycle;Signal;HPM_P1;HPM_P2
2023/07/12 00:00:22;;;;;;;2.9;1.6;;;;;;;21.76;82.44238;937.8069;;;;
2023/07/12 00:02:48;;;;;;;4.1;1.5;;;;;;;21.67;82.47266;937.8333;;;;
2023/07/12 00:05:15;;;;;;;2.9;1.4;;;;;;;21.72;81.56738;937.9249;;;;
2023/07/12 00:07:40;;;;;;;3.9;1.7;;;;;;;21.75;82.5332;938.0602;;;;
2023/07/12 00:10:05;;;;;;;2.2;1.7;;;;;;;21.61;83.52832;938.0336;;;;
2023/07/12 00:12:30;;;;;;;3;1.6;;;;;;;21.46;85.24316;938.0792;;;;
2023/07/12 00:14:55;;;;;;;3.6;1.7;;;;;;;;;;;;;
2023/07/12 00:17:21;;;;;;;4.3;1.8;;;;;;;;;;;;;
2023/07/12 00:19:45;;;;;;;7.2;1.9;;;;;;;;;;;;;
2023/07/12 00:22:10;;;;;;;2.7;1.6;;;;;;;;;;;;;
2023/07/12 00:24:36;;;;;;;3.3;1.5;;;;;;;;;;;;;
2023/07/12 00:27:01;;;;;;;4.8;1.9;;;;;;;;;;;;;
2023/07/12 00:29:27;;;;;;;4;2;;;;;;;;;;;;;
2023/07/12 00:31:53;;;;;;;5.5;1.7;;;;;;;;;;;;;
2023/07/12 00:34:19;;;;;;;5.1;1.9;;;;;;;;;;;;;
2023/07/12 00:36:45;;;;;;;4.3;2.2;;;;;;;;;;;;;
2023/07/12 00:39:10;;;;;;;2.8;1.8;;;;;;;;;;;;;
2023/07/12 00:41:35;;;;;;;3.4;1.6;;;;;;;;;;;;;
2023/07/12 00:44:00;;;;;;;4.8;1.8;;;;;;;;;;;;;
2023/07/12 00:46:25;;;;;;;3.6;1.9;;;;;;;;;;;;;
2023/07/12 00:48:51;;;;;;;3.1;1.7;;;;;;;;;;;;;
2023/07/12 00:51:17;;;;;;;5.7;2;;;;;;;;;;;;;
2023/07/12 00:53:43;;;;;;;3.6;1.8;;;;;;;;;;;;;
2023/07/12 00:56:08;;;;;;;4.9;1.7;;;;;;;;;;;;;
2023/07/12 00:58:33;;;;;;;5.3;1.9;;;;;;;;;;;;;
2023/07/12 01:00:58;;;;;;;3.5;1.7;;;;;;;;;;;;;
2023/07/12 01:03:25;;;;;;;3.8;2;;;;;;;;;;;;;
2023/07/12 01:05:50;;;;;;;3.7;2.1;;;;;;;;;;;;;
2023/07/12 01:08:16;;;;;;;4.8;1.9;;;;;;;;;;;;;
2023/07/12 01:10:42;;;;;;;3.8;1.7;;;;;;;;;;;;;
2023/07/12 01:13:07;;;;;;;3.2;2.2;;;;;;;;;;;;;
2023/07/12 01:15:32;;;;;;;3.9;1.6;;;;;;;;;;;;;
2023/07/12 01:17:57;;;;;;;3.5;1.8;;;;;;;;;;;;;
2023/07/12 01:20:22;;;;;;;6.3;2.1;;;;;;;;;;;;;
2023/07/12 01:22:48;;;;;;;3.9;1.7;;;;;;;;;;;;;
2023/07/12 01:25:13;;;;;;;3.2;1.8;;;;;;;;;;;;;
2023/07/12 01:27:39;;;;;;;2.4;1.7;;;;;;;;;;;;;
2023/07/12 01:30:04;;;;;;;2;1.5;;;;;;;;;;;;;
2023/07/12 01:32:30;;;;;;;3.2;1.6;;;;;;;;;;;;;
2023/07/12 01:34:55;;;;;;;3.6;1.9;;;;;;;;;;;;;
2023/07/12 01:37:20;;;;;;;2.2;1.6;;;;;;;;;;;;;
2023/07/12 01:39:45;;;;;;;3.5;1.8;;;;;;;;;;;;;
2023/07/12 01:42:11;;;;;;;2.6;1.7;;;;;;;;;;;;;
2023/07/12 01:44:36;;;;;;;7;3.3;;;;;;;;;;;;;
2023/07/12 01:47:02;;;;;;;41.4;21.6;;;;;;;;;;;;;
2023/07/12 01:49:27;;;;;;;4.6;3;;;;;;;;;;;;;
2023/07/12 01:51:52;;;;;;;3.6;2.1;;;;;;;;;;;;;
2023/07/12 01:54:18;;;;;;;2.2;1.8;;;;;;;;;;;;;
2023/07/12 01:56:43;;;;;;;4.2;1.8;;;;;;;;;;;;;
2023/07/12 01:59:08;;;;;;;4.9;2.1;;;;;;;;;;;;;
2023/07/12 02:01:33;;;;;;;2.9;1.8;;;;;;;;;;;;;
2023/07/12 02:03:59;;;;;;;5;2.1;;;;;;;;;;;;;
2023/07/12 02:06:24;;;;;;;2.5;1.8;;;;;;;;;;;;;
2023/07/12 02:08:49;;;;;;;4.9;2;;;;;;;;;;;;;
2023/07/12 02:11:15;;;;;;;5.4;1.9;;;;;;;;;;;;;
2023/07/12 02:13:40;;;;;;;3.2;2;;;;;;;;;;;;;
2023/07/12 02:16:06;;;;;;;5.1;2.4;;;;;;;;;;;;;
2023/07/12 02:18:31;;;;;;;3.1;1.9;;;;;;;;;;;;;
2023/07/12 02:20:56;;;;;;;6.9;2.2;;;;;;;;;;;;;
2023/07/12 02:23:22;;;;;;;2.8;1.7;;;;;;;;;;;;;
2023/07/12 02:25:47;;;;;;;3.6;2;;;;;;;;;;;;;
2023/07/12 02:28:13;;;;;;;3.9;2;;;;;;;;;;;;;
2023/07/12 02:30:38;;;;;;;2.8;2;;;;;;;;;;;;;
2023/07/12 02:33:03;;;;;;;4.5;1.9;;;;;;;;;;;;;
2023/07/12 02:35:29;;;;;;;2;1.7;;;;;;;;;;;;;
2023/07/12 02:37:56;;;;;;;2.2;2;;;;;;;;;;;;;
2023/07/12 02:40:22;;;;;;;3.1;1.9;;;;;;;;;;;;;
2023/07/12 02:42:55;;;;;;;3.8;2.1;;;;;;;;;;;;;
2023/07/12 02:45:21;;;;;;;2.4;1.6;;;;;;;;;;;;;
2023/07/12 02:47:46;;;;;;;3.1;2.1;;;;;;;;;;;;;
2023/07/12 02:50:15;;;;;;;4;1.9;;;;;;;;;;;;;
2023/07/12 02:52:40;;;;;;;4.3;2.1;;;;;;;;;;;;;
2023/07/12 02:55:06;;;;;;;3.6;1.9;;;;;;;;;;;;;
2023/07/12 02:57:30;;;;;;;3.4;1.7;;;;;;;;;;;;;
2023/07/12 02:59:57;;;;;;;3.6;2;;;;;;;;;;;;;
2023/07/12 03:02:22;;;;;;;3.8;2;;;;;;;;;;;;;
2023/07/12 03:04:49;;;;;;;4.2;2.1;;;;;;;;;;;;;
2023/07/12 03:07:14;;;;;;;2.8;1.8;;;;;;;;;;;;;
2023/07/12 03:09:40;;;;;;;4.3;1.9;;;;;;;;;;;;;
2023/07/12 03:12:05;;;;;;;6.7;2.2;;;;;;;;;;;;;
2023/07/12 03:14:30;;;;;;;4.3;1.7;;;;;;;;;;;;;
2023/07/12 03:16:55;;;;;;;3.4;1.9;;;;;;;;;;;;;
2023/07/12 03:19:20;;;;;;;4;2.2;;;;;;;;;;;;;
2023/07/12 03:21:46;;;;;;;3;2.1;;;;;;;;;;;;;
2023/07/12 03:24:11;;;;;;;4.4;1.9;;;;;;;;;;;;;
2023/07/12 03:26:37;;;;;;;2.3;1.8;;;;;;;;;;;;;
2023/07/12 03:29:03;;;;;;;5.7;2.3;;;;;;;;;;;;;
2023/07/12 03:31:28;;;;;;;3.8;1.9;;;;;;;;;;;;;
2023/07/12 03:33:53;;;;;;;4.2;2;;;;;;;;;;;;;
2023/07/12 03:36:20;;;;;;;3.7;1.8;;;;;;;;;;;;;
2023/07/12 03:38:45;;;;;;;4.1;1.9;;;;;;;;;;;;;
2023/07/12 03:41:12;;;;;;;4.5;2.3;;;;;;;;;;;;;
2023/07/12 03:43:37;;;;;;;3.7;2;;;;;;;;;;;;;
2023/07/12 03:46:03;;;;;;;7.4;4.2;;;;;;;;;;;;;
2023/07/12 03:48:29;;;;;;;6.6;3.9;;;;;;;;;;;;;
2023/07/12 03:50:55;;;;;;;7.2;3.3;;;;;;;;;;;;;
2023/07/12 03:53:19;;;;;;;4;2.2;;;;;;;;;;;;;
2023/07/12 03:55:44;;;;;;;4.3;2.5;;;;;;;;;;;;;
2023/07/12 03:58:09;;;;;;;4.2;2;;;;;;;;;;;;;
2023/07/12 04:02:37;;;;;;;3.2;2;;;;;;;20.41;83.24316;935.7668;;;;
2023/07/12 04:05:02;;;;;;;3.8;2;;;;;;;20.42;79.57813;935.7755;;;;
2023/07/12 04:07:27;;;;;;;4.9;2;;;;;;;20.4;81.94434;935.7856;;;;
2023/07/12 04:09:55;;;;;;;7.4;2.1;;;;;;;20.31;78.98633;935.7875;;;;
2023/07/12 04:12:20;;;;;;;2.8;1.7;;;;;;;20.46;76.09277;935.7941;;;;
2023/07/12 04:14:48;;;;;;;3.7;2.1;;;;;;;20.63;76.06348;935.8049;;;;
2023/07/12 04:17:13;;;;;;;5.8;1.9;;;;;;;20.72;76.78027;935.7847;;;;
2023/07/12 04:19:38;;;;;;;3.1;1.9;;;;;;;20.59;77.54102;935.8786;;;;
2023/07/12 04:22:06;;;;;;;4.8;1.7;;;;;;;20.51;78.14551;935.8005;;;;
2023/07/12 04:24:37;;;;;;;3.4;1.8;;;;;;;20.58;79.02344;935.8247;;;;
2023/07/12 04:27:02;;;;;;;2.7;1.9;;;;;;;20.61;79.6377;935.8487;;;;
2023/07/12 04:29:31;;;;;;;4.1;1.9;;;;;;;20.55;79.54199;935.825;;;;
2023/07/12 04:31:56;;;;;;;4.3;2;;;;;;;20.55;77.45117;935.8702;;;;
2023/07/12 04:34:22;;;;;;;3.1;2;;;;;;;20.74;76.71289;935.8262;;;;
2023/07/12 04:36:48;;;;;;;3;1.9;;;;;;;20.86;75.97559;935.9001;;;;
2023/07/12 04:39:16;;;;;;;3.2;1.9;;;;;;;20.94;74.82031;935.9037;;;;
2023/07/12 04:41:45;;;;;;;8.3;2.3;;;;;;;21.06;75.37598;935.8912;;;;
2023/07/12 04:44:22;;;;;;;9.1;2.3;;;;;;;21.14;74.86328;935.8731;;;;
2023/07/12 04:46:50;;;;;;;4.1;1.9;;;;;;;21.26;76.96777;935.781;;;;
2023/07/12 04:49:15;;;;;;;5.3;2.2;;;;;;;21.44;75.17188;935.7839;;;;
2023/07/12 04:51:43;;;;;;;6.7;2.1;;;;;;;21.5;73.94238;935.8292;;;;
2023/07/12 04:54:08;;;;;;;4.1;2.1;;;;;;;21.69;73.82031;935.8244;;;;
2023/07/12 04:56:37;;;;;;;3.9;1.7;;;;;;;21.79;71.85938;935.8059;;;;
2023/07/12 04:59:08;;;;;;;4.2;1.8;;;;;;;22;71.43555;935.7776;;;;
2023/07/12 05:01:34;;;;;;;2.4;1.7;;;;;;;22.19;69.3418;935.8353;;;;
2023/07/12 05:04:08;;;;;;;3;1.6;;;;;;;22.18;69.82129;935.8201;;;;
2023/07/12 05:06:37;;;;;;;2.7;1.7;;;;;;;22.26;69.78711;935.802;;;;
2023/07/12 05:09:03;;;;;;;4.3;2;;;;;;;22.34;68.80469;935.8027;;;;
2023/07/12 05:11:33;;;;;;;5.1;1.7;;;;;;;22.61;69.63184;935.6606;;;;
2023/07/12 05:14:05;;;;;;;2.1;1.7;;;;;;;22.91;65.95703;935.6351;;;;
2023/07/12 05:16:37;;;;;;;2.9;1.7;;;;;;;23.01;63.59863;935.5511;;;;
2023/07/12 05:19:08;;;;;;;3;1.6;;;;;;;23.21;65.07227;935.509;;;;
2023/07/12 05:24:29;;;;;;;2.5;1.6;;;;;;;23.11;61.76758;935.4742;;;;
2023/07/12 05:26:56;;;;;;;4.1;1.7;;;;;;;22.85;62.96484;935.4769;;;;
2023/07/12 05:29:20;;;;;;;2.5;1.5;;;;;;;22.55;63.62695;935.5461;;;;
2023/07/12 05:31:49;;;;;;;3.3;1.7;;;;;;;22.55;63.17969;935.5536;;;;
2023/07/12 05:34:15;;;;;;;3.2;1.8;;;;;;;22.73;64.9668;935.6484;;;;
2023/07/12 05:36:45;;;;;;;4.6;1.9;;;;;;;22.82;64.32324;935.7449;;;;
2023/07/12 05:39:15;;;;;;;2.8;1.7;;;;;;;22.85;64.66602;935.9075;;;;
2023/07/12 05:41:40;;;;;;;4;1.8;;;;;;;22.9;66.63672;935.9814;;;;
2023/07/12 05:44:28;;;;;;;3.5;2.1;;;;;;;22.83;67.90527;936.0762;;;;
2023/07/12 05:46:58;;;;;;;7.6;2;;;;;;;22.7;67.45215;936.1962;;;;
2023/07/12 05:49:24;;;;;;;3.9;1.8;;;;;;;22.69;67.19043;936.2722;;;;
2023/07/12 05:51:49;;;;;;;3.9;1.9;;;;;;;22.73;68.3252;936.3695;;;;
2023/07/12 05:54:15;;;;;;;4.1;1.9;;;;;;;22.57;63.80664;936.4559;;;;
2023/07/12 05:56:41;;;;;;;3.9;1.7;;;;;;;22.61;66.0166;936.5308;;;;
2023/07/12 05:59:07;;;;;;;3.7;1.7;;;;;;;22.5;65.83594;936.6066;;;;
2023/07/12 06:01:33;;;;;;;3.1;2;;;;;;;22.48;69.92871;936.8678;;;;
2023/07/12 06:04:01;;;;;;;4;2.4;;;;;;;22.34;72.73242;937.1731;;;;
2023/07/12 06:06:32;;;;;;;4.6;1.9;;;;;;;22.2;74.77441;937.359;;;;
2023/07/12 06:08:56;;;;;;;7.4;2.4;;;;;;;22.23;74.56738;937.7012;;;;
2023/07/12 06:11:22;;;;;;;4.9;2.2;;;;;;;22.3;76.35059;937.8909;;;;
2023/07/12 06:13:47;;;;;;;8;2.7;;;;;;;22.11;78.17188;938.1724;;;;
2023/07/12 06:16:12;;;;;;;7.5;2.2;;;;;;;21.89;80.65137;938.486;;;;
2023/07/12 06:18:42;;;;;;;6.6;2.3;;;;;;;21.7;81.6123;938.7375;;;;
2023/07/12 06:21:08;;;;;;;5.2;2.1;;;;;;;21.71;79.33008;938.8939;;;;
2023/07/12 06:23:32;;;;;;;4.1;2.1;;;;;;;21.6;77.9043;939.1144;;;;
2023/07/12 06:25:59;;;;;;;3.6;2.2;;;;;;;21.58;80.20801;939.2178;;;;
2023/07/12 06:28:24;;;;;;;3.5;2;;;;;;;21.52;81.05273;939.3954;;;;
2023/07/12 06:30:53;;;;;;;4.8;2.3;;;;;;;21.45;82.3252;939.6077;;;;
2023/07/12 06:33:18;;;;;;;6.3;2.6;;;;;;;21.36;85.91504;939.7095;;;;
2023/07/12 06:35:49;;;;;;;5.3;2.4;;;;;;;20.9;85.60352;939.7585;;;;
2023/07/12 06:38:20;;;;;;;6.4;2.4;;;;;;;20.93;86.54395;939.8038;;;;
2023/07/12 06:40:44;;;;;;;4.1;2.1;;;;;;;20.72;85.91895;939.7833;;;;
2023/07/12 06:53:26;;;;;;;5.5;2.4;;;;;;;20.66;87.90527;939.4767;;;;
2023/07/12 06:55:58;;;;;;;5.2;2.4;;;;;;;20.69;87.11621;939.2988;;;;
2023/07/12 06:58:28;;;;;;;5;2.9;;;;;;;20.68;88.27051;938.9348;;;;
2023/07/12 07:00:58;;;;;;;5.5;2.6;;;;;;;20.67;86.58789;938.7933;;;;
2023/07/12 07:03:25;;;;;;;7.5;2.7;;;;;;;20.68;84.04199;938.7703;;;;
2023/07/12 07:05:50;;;;;;;6.5;2.6;;;;;;;20.59;85.3457;938.7371;;;;
2023/07/12 07:08:24;;;;;;;4.1;2.5;;;;;;;20.55;88.10547;938.7731;;;;
2023/07/12 07:10:52;;;;;;;8.3;5;;;;;;;20.48;89.22363;938.6561;;;;
2023/07/12 07:13:17;;;;;;;7.5;3.3;;;;;;;20.54;88.89941;938.478;;;;
2023/07/12 07:15:46;;;;;;;6.3;3.3;;;;;;;20.38;88.35352;938.2579;;;;
2023/07/12 07:18:11;;;;;;;5.8;3.2;;;;;;;20.24;89.6084;937.8875;;;;
2023/07/12 07:20:40;;;;;;;4.3;2.3;;;;;;;20.13;87.76563;937.4133;;;;
2023/07/12 07:23:05;;;;;;;3.9;2;;;;;;;19.86;88.45703;937.1943;;;;
2023/07/12 07:25:31;;;;;;;4.4;2.3;;;;;;;19.72;89.67773;937.0645;;;;
2023/07/12 07:27:59;;;;;;;3.7;2.3;;;;;;;19.78;89.72559;937.0451;;;;
2023/07/12 07:30:28;;;;;;;5.3;2.7;;;;;;;19.82;91.84375;937.5572;;;;
2023/07/12 07:32:54;;;;;;;4.1;2.4;;;;;;;19.7;90.29199;937.6339;;;;
2023/07/12 07:35:23;;;;;;;7.5;2.8;;;;;;;19.83;88.97852;937.3585;;;;
2023/07/12 07:37:48;;;;;;;6.8;2.5;;;;;;;19.94;86.66699;937.4659;;;;
2023/07/12 07:40:22;;;;;;;5.7;2.1;;;;;;;20.09;86.43848;937.7101;;;;
2023/07/12 07:42:50;;;;;;;4.4;2.6;;;;;;;20.11;89.02246;937.7194;;;;
2023/07/12 07:45:18;;;;;;;4.2;2.5;;;;;;;20.1;90.81641;937.6398;;;;
2023/07/12 07:47:47;;;;;;;4.9;2.7;;;;;;;19.86;92.05078;937.6079;;;;
2023/07/12 07:50:21;;;;;;;5.3;2.5;;;;;;;19.8;94.00879;937.5787;;;;
2023/07/12 07:52:55;;;;;;;4.1;2.4;;;;;;;19.81;93.47461;937.652;;;;
2023/07/12 07:55:26;;;;;;;5;2.9;;;;;;;20.08;93.7998;937.7283;;;;
2023/07/12 07:57:49;;;;;;;7.4;2.9;;;;;;;20.26;92.27441;937.7422;;;;
2023/07/12 08:00:16;;;;;;;4.8;2.8;;;;;;;20.29;91.52246;937.7363;;;;
2023/07/12 08:02:42;;;;;;;5.8;3;;;;;;;20.37;90.2998;937.6671;;;;
2023/07/12 08:05:06;;;;;;;5.9;3.2;;;;;;;20.33;89.98926;937.5323;;;;
2023/07/12 08:07:35;;;;;;;6.2;3.1;;;;;;;20.34;91.82422;937.4542;;;;
2023/07/12 08:10:05;;;;;;;6.1;2.5;;;;;;;20.32;93.0459;937.5357;;;;
2023/07/12 08:12:31;;;;;;;7.2;2.8;;;;;;;20.36;92.98535;937.5272;;;;
2023/07/12 08:14:59;;;;;;;5.1;2.6;;;;;;;20.36;89.16699;937.4495;;;;
2023/07/12 08:17:24;;;;;;;5.2;2.8;;;;;;;20.39;90.02344;937.4052;;;;
2023/07/12 08:19:51;;;;;;;4.6;2.5;;;;;;;20.7;90.43652;937.421;;;;
2023/07/12 08:22:19;;;;;;;3.6;2.5;;;;;;;20.67;87.5;937.3078;;;;
2023/07/12 08:24:44;;;;;;;6.7;2.5;;;;;;;20.8;87.67676;937.1772;;;;
2023/07/12 08:27:18;;;;;;;6.1;2.4;;;;;;;20.88;86.15918;937.163;;;;
2023/07/12 08:29:44;;;;;;;5.8;2.5;;;;;;;20.93;86.01953;937.1369;;;;
2023/07/12 08:32:09;;;;;;;5.9;2.5;;;;;;;21.28;85.87598;937.0795;;;;
2023/07/12 08:34:34;;;;;;;5;2.4;;;;;;;21.59;84.88086;937.0633;;;;
2023/07/12 08:37:01;;;;;;;4.8;2.4;;;;;;;21.83;82.85449;936.9705;;;;
2023/07/12 08:39:27;;;;;;;5.5;2.7;;;;;;;21.95;82.5127;936.9653;;;;
2023/07/12 08:41:55;;;;;;;4.4;2.2;;;;;;;22.21;82.51465;936.8791;;;;
2023/07/12 08:44:20;;;;;;;4.2;1.9;;;;;;;22.51;79.12012;936.8861;;;;
2023/07/12 08:46:47;;;;;;;6;2.2;;;;;;;22.98;78.54785;936.8074;;;;
2023/07/12 08:49:13;;;;;;;3.3;2.2;;;;;;;23.33;75.05859;936.7609;;;;
2023/07/12 08:51:39;;;;;;;3.5;1.7;;;;;;;23.56;71.10938;936.6914;;;;
2023/07/12 08:54:03;;;;;;;3.6;1.9;;;;;;;23.81;71.26758;936.6819;;;;
2023/07/12 08:56:28;;;;;;;4.2;2;;;;;;;24.08;70.57031;936.573;;;;
2023/07/12 08:58:53;;;;;;;4;1.8;;;;;;;24.48;72.30664;936.4646;;;;
2023/07/12 09:01:18;;;;;;;3.7;2.3;;;;;;;24.98;68.12793;936.4451;;;;
2023/07/12 09:03:46;;;;;;;4.2;2.2;;;;;;;25.44;67.58398;936.3758;;;;
2023/07/12 09:06:12;;;;;;;4.1;2;;;;;;;25.9;68.36133;936.3064;;;;
2023/07/12 09:08:37;;;;;;;2.9;2;;;;;;;25.92;66.56836;936.2822;;;;
2023/07/12 09:11:07;;;;;;;6.4;2.3;;;;;;;25.63;65.31934;936.1526;;;;
2023/07/12 09:13:36;;;;;;;5.4;2.2;;;;;;;25.71;61.5498;936.1686;;;;
2023/07/12 09:16:01;;;;;;;2.9;1.5;;;;;;;25.66;63.68164;936.1595;;;;
2023/07/12 09:18:29;;;;;;;3.8;1.9;;;;;;;26.14;62.31836;936.1699;;;;
2023/07/12 09:20:58;;;;;;;2.8;1.7;;;;;;;26.95;63.24902;936.1209;;;;
2023/07/12 09:23:24;;;;;;;2.9;1.5;;;;;;;27.98;58.14355;936.0062;;;;
2023/07/12 09:25:49;;;;;;;2.7;1.6;;;;;;;28.99;56.54883;936.082;;;;
2023/07/12 09:28:18;;;;;;;3.1;1.4;;;;;;;30.02;52.89453;936.1574;;;;
2023/07/12 09:30:45;;;;;;;1.9;1.5;;;;;;;29.82;47.40918;936.0867;;;;
2023/07/12 09:33:11;;;;;;;2.2;1.2;;;;;;;29.15;48.67188;936.0542;;;;
2023/07/12 09:35:38;;;;;;;2.7;1.9;;;;;;;27.68;52.89258;935.9744;;;;
2023/07/12 09:38:04;;;;;;;3.7;1.6;;;;;;;27.55;52.65234;936.051;;;;
2023/07/12 09:40:33;;;;;;;2.5;1.4;;;;;;;28.48;51.51367;936.1156;;;;
2023/07/12 09:42:59;;;;;;;2.6;1.6;;;;;;;28.25;49.95313;936.0056;;;;
2023/07/12 09:45:27;;;;;;;2.7;1.5;;;;;;;28.35;49.63086;936.0743;;;;
2023/07/12 09:47:54;;;;;;;7.9;3.2;;;;;;;28.79;50.13281;935.9899;;;;
2023/07/12 09:50:21;;;;;;;5.1;2.4;;;;;;;29.28;48.49609;935.8712;;;;
2023/07/12 09:52:46;;;;;;;2.1;1.3;;;;;;;29.04;47.30273;935.895;;;;
2023/07/12 09:55:11;;;;;;;1.3;1.1;;;;;;;28.52;47.46191;935.8817;;;;
2023/07/12 09:57:36;;;;;;;1.6;1.5;;;;;;;27.98;48.21289;935.798;;;;
2023/07/12 10:00:01;;;;;;;2.3;1.1;;;;;;;27.68;50.42383;935.7765;;;;
2023/07/12 10:02:31;;;;;;;2.5;1.5;;;;;;;27.76;49.11621;935.7073;;;;
2023/07/12 10:04:58;;;;;;;1.8;1.3;;;;;;;27.77;50.81543;935.6848;;;;
2023/07/12 10:07:25;;;;;;;3.4;1.5;;;;;;;27.73;48.91016;935.7216;;;;
2023/07/12 10:09:50;;;;;;;2.3;1.2;;;;;;;27.61;48.51758;935.7789;;;;
2023/07/12 10:12:17;;;;;;;2.9;1.5;;;;;;;27.86;48.33008;935.7885;;;;
2023/07/12 10:14:40;;;;;;;2.2;1.2;;;;;;;28.18;49.61328;935.7698;;;;
2023/07/12 10:17:06;;;;;;;1.8;1.2;;;;;;;28.37;47.25586;935.7575;;;;
2023/07/12 10:19:31;;;;;;;1.6;1.2;;;;;;;28.28;48.68555;935.7207;;;;
2023/07/12 10:21:57;;;;;;;1.9;1.4;;;;;;;27.94;49.22949;935.709;;;;
2023/07/12 10:24:24;;;;;;;1.9;1;;;;;;;28.22;50.24805;935.7629;;;;
2023/07/12 10:26:52;;;;;;;2.9;1.7;;;;;;;28.84;48.10352;935.7972;;;;
2023/07/12 10:29:18;;;;;;;3.1;1.7;;;;;;;29.48;46.01465;935.7957;;;;
2023/07/12 10:31:43;;;;;;;1.1;0.9;;;;;;;29.85;43.43945;935.8042;;;;
2023/07/12 10:34:08;;;;;;;2.9;1.5;;;;;;;29.99;44.27734;935.8219;;;;
2023/07/12 10:36:36;;;;;;;2.1;1.2;;;;;;;30.31;43.92578;935.7704;;;;
2023/07/12 10:39:01;;;;;;;3.3;1.3;;;;;;;30.45;45.67188;935.7896;;;;
2023/07/12 10:41:26;;;;;;;5.1;1.5;;;;;;;31;43.04785;935.7634;;;;
2023/07/12 10:43:54;;;;;;;2.1;1;;;;;;;31.12;40.47559;935.7211;;;;
2023/07/12 10:46:19;;;;;;;2.3;1.1;;;;;;;30.55;39.64941;935.7388;;;;
2023/07/12 10:48:49;;;;;;;1.6;1.2;;;;;;;30.39;43.50488;935.6986;;;;
2023/07/12 10:51:14;;;;;;;2.4;1.3;;;;;;;30.33;42.14844;935.7197;;;;
2023/07/12 10:53:43;;;;;;;2;1.3;;;;;;;30.86;41.1582;935.6656;;;;
2023/07/12 10:56:13;;;;;;;1.5;1.2;;;;;;;31.01;42.64258;935.6412;;;;
2023/07/12 10:58:38;;;;;;;1.9;1.1;;;;;;;30.45;43.15137;935.6791;;;;
2023/07/12 11:01:09;;;;;;;3;1.4;;;;;;;30.71;42.83008;935.6055;;;;
2023/07/12 11:03:35;;;;;;;2.5;1.2;;;;;;;31.25;39.54297;935.5353;;;;
2023/07/12 11:06:01;;;;;;;1.5;1.2;;;;;;;31.22;37.2793;935.5574;;;;
2023/07/12 11:08:28;;;;;;;1.5;1.3;;;;;;;31.21;40.77148;935.5489;;;;
2023/07/12 11:10:54;;;;;;;1.3;1.2;;;;;;;31.65;40.60645;935.613;;;;
2023/07/12 11:13:21;;;;;;;3.8;1.5;;;;;;;32.06;39.01367;935.5148;;;;
2023/07/12 11:15:52;;;;;;;2.4;1.5;;;;;;;32.4;37.3877;935.5168;;;;
2023/07/12 11:18:20;;;;;;;2.2;1.2;;;;;;;32.46;36.61328;935.4683;;;;
2023/07/12 11:20:45;;;;;;;1.2;1.1;;;;;;;32.56;38.80469;935.4554;;;;
2023/07/12 11:23:10;;;;;;;2.5;1.5;;;;;;;32.29;44.09375;935.462;;;;
2023/07/12 11:25:36;;;;;;;2.6;1.6;;;;;;;31.33;47.44824;935.5571;;;;
2023/07/12 11:28:01;;;;;;;3.4;1.6;;;;;;;31.57;44.99414;935.6373;;;;
2023/07/12 11:30:26;;;;;;;2.5;1.6;;;;;;;31.52;46.40234;935.7482;;;;
2023/07/12 11:32:51;;;;;;;1.5;1.4;;;;;;;31.45;45.12598;935.8237;;;;
2023/07/12 11:35:20;;;;;;;2.9;1.6;;;;;;;30.83;46.67871;935.916;;;;
2023/07/12 11:37:45;;;;;;;4.9;1.6;;;;;;;30.36;48.39746;936.0969;;;;
2023/07/12 11:40:14;;;;;;;3.5;1.8;;;;;;;30.02;48.46777;936.1301;;;;
2023/07/12 11:42:46;;;;;;;2.4;1.7;;;;;;;29.75;49.20215;936.1451;;;;
2023/07/12 11:45:20;;;;;;;1.7;1.6;;;;;;;29.66;48.67969;936.0753;;;;
2023/07/12 11:47:46;;;;;;;3.7;1.9;;;;;;;29.64;50.44238;935.9562;;;;
2023/07/12 11:50:10;;;;;;;2.3;1.8;;;;;;;29.36;51.25684;935.8985;;;;
2023/07/12 11:52:44;;;;;;;5.7;2;;;;;;;28.99;52.69043;935.9666;;;;
2023/07/12 11:55:14;;;;;;;4.2;1.7;;;;;;;28.62;52.69531;935.9949;;;;
2023/07/12 11:57:39;;;;;;;2.8;1.8;;;;;;;28.03;54.88379;935.9506;;;;
2023/07/12 12:00:04;;;;;;;1.9;1.7;;;;;;;27.88;54.16406;935.8638;;;;
2023/07/12 12:02:29;;;;;;;2.9;1.9;;;;;;;27.86;56.14453;935.8484;;;;
2023/07/12 12:04:59;;;;;;;2.7;1.9;;;;;;;27.71;57.90625;935.9821;;;;
2023/07/12 12:07:22;;;;;;;4.6;2.1;;;;;;;27.79;55.86328;936.0044;;;;
2023/07/12 12:09:47;;;;;;;3.4;1.8;;;;;;;28.01;54.70215;936.1064;;;;
2023/07/12 12:12:16;;;;;;;2.6;1.6;;;;;;;28.1;55.15234;936.0795;;;;
2023/07/12 12:14:40;;;;;;;3.5;1.9;;;;;;;27.94;55.39551;936.0994;;;;
2023/07/12 12:17:06;;;;;;;3.4;1.9;;;;;;;27.73;56.27148;936.1092;;;;
2023/07/12 12:19:31;;;;;;;2.6;2.3;;;;;;;27.62;57.25488;936.0901;;;;
2023/07/12 12:21:56;;;;;;;2.3;1.5;;;;;;;27.66;55.7998;936.0032;;;;
2023/07/12 12:24:22;;;;;;;2.5;1.8;;;;;;;27.68;55.71875;935.9088;;;;
2023/07/12 12:26:47;;;;;;;2.8;2;;;;;;;27.65;59.13379;935.9014;;;;
2023/07/12 12:29:12;;;;;;;4;2;;;;;;;28.08;59.59375;935.8892;;;;
2023/07/12 12:31:37;;;;;;;6.6;2.4;;;;;;;28.38;58.75488;935.9678;;;;
2023/07/12 12:34:02;;;;;;;3;1.9;;;;;;;28.67;54.5918;935.9413;;;;
2023/07/12 12:36:27;;;;;;;2.5;2;;;;;;;28.89;52.64453;935.873;;;;
2023/07/12 12:38:57;;;;;;;2.7;2.1;;;;;;;28.98;52.65332;935.8666;;;;
2023/07/12 12:41:22;;;;;;;3.2;1.9;;;;;;;29.01;52.08496;935.8164;;;;
2023/07/12 12:43:47;;;;;;;3.4;1.8;;;;;;;29.01;52.28809;935.7226;;;;
2023/07/12 12:46:13;;;;;;;3.5;2.1;;;;;;;28.78;52.97461;935.7724;;;;
2023/07/12 12:48:38;;;;;;;3.5;1.8;;;;;;;28.88;52.84473;935.8303;;;;
2023/07/12 12:51:03;;;;;;;3.5;2.1;;;;;;;28.74;53.16211;935.866;;;;
2023/07/12 12:53:29;;;;;;;4;2.6;;;;;;;28.71;53.95605;935.8898;;;;
2023/07/12 12:55:54;;;;;;;3.7;2;;;;;;;28.51;55.23926;935.938;;;;
2023/07/12 12:58:22;;;;;;;2.7;2.1;;;;;;;28.33;56.40625;935.8688;;;;
2023/07/12 13:00:47;;;;;;;2.4;1.9;;;;;;;28.39;58.50488;935.8719;;;;
2023/07/12 13:03:19;;;;;;;3.2;2;;;;;;;28.58;57.8291;935.9889;;;;
2023/07/12 13:05:42;;;;;;;3.7;2.1;;;;;;;28.5;57.98535;936.082;;;;
2023/07/12 13:08:07;;;;;;;3.1;2.2;;;;;;;28.35;58.27441;936.0206;;;;
2023/07/12 13:10:35;;;;;;;2.1;1.9;;;;;;;28.15;58.7002;935.9911;;;;
2023/07/12 13:13:00;;;;;;;2.5;2;;;;;;;28.06;60.16211;936.0165;;;;
2023/07/12 13:15:29;;;;;;;3;2.4;;;;;;;27.88;59.94727;936.1238;;;;
2023/07/12 13:17:54;;;;;;;4.4;2.3;;;;;;;27.75;60.28711;936.1197;;;;
2023/07/12 13:20:25;;;;;;;3.9;2.2;;;;;;;27.61;60.62207;936.0977;;;;
2023/07/12 13:22:49;;;;;;;3.8;2.2;;;;;;;27.59;59.44629;936.0798;;;;
2023/07/12 13:25:21;;;;;;;3;2;;;;;;;27.63;59.7002;936.193;;;;
2023/07/12 13:27:48;;;;;;;4.3;2.7;;;;;;;27.4;61.93457;936.3378;;;;
2023/07/12 13:30:14;;;;;;;3.2;2.4;;;;;;;27.28;61.24316;936.272;;;;
2023/07/12 13:32:42;;;;;;;4.3;2.4;;;;;;;27.14;61.2959;936.0986;;;;
2023/07/12 13:35:07;;;;;;;3;2.3;;;;;;;27.08;61.3584;936.1217;;;;
2023/07/12 13:37:36;;;;;;;5;2.3;;;;;;;26.99;61.19141;936.0167;;;;
2023/07/12 13:40:01;;;;;;;5.2;2.1;;;;;;;27.06;60.83398;936.1547;;;;
2023/07/12 13:42:28;;;;;;;5.6;2.6;;;;;;;26.62;62.36035;936.1068;;;;
2023/07/12 13:44:53;;;;;;;2.9;1.8;;;;;;;26.33;62.42871;936.0639;;;;
2023/07/12 13:47:25;;;;;;;4.1;2.1;;;;;;;26.27;62.37207;936.1696;;;;
2023/07/12 13:49:53;;;;;;;5.5;2.2;;;;;;;26.19;60.00684;936.2504;;;;
2023/07/12 13:52:18;;;;;;;3.8;2.2;;;;;;;26.11;62.96387;936.3308;;;;
2023/07/12 13:54:45;;;;;;;2.9;2.6;;;;;;;26.24;62.69824;936.2489;;;;
2023/07/12 13:57:10;;;;;;;4.1;2.3;;;;;;;26.26;65.26855;936.3963;;;;
2023/07/12 13:59:39;;;;;;;3.9;2.4;;;;;;;26.26;66.79688;936.5544;;;;
2023/07/12 14:02:05;;;;;;;2.3;2.1;;;;;;;25.95;62.96582;936.4868;;;;
2023/07/12 14:04:29;;;;;;;3.3;2.1;;;;;;;25.86;65.37793;936.527;;;;
2023/07/12 14:06:54;;;;;;;4.8;2.2;;;;;;;25.65;64.86133;936.5236;;;;
2023/07/12 14:09:26;;;;;;;4.1;2.4;;;;;;;25.64;67.58984;936.5844;;;;
2023/07/12 14:11:53;;;;;;;2.4;2.1;;;;;;;25.15;64.80176;936.5801;;;;
2023/07/12 14:14:18;;;;;;;2.7;2.1;;;;;;;25.09;67.54102;936.7135;;;;
2023/07/12 14:16:43;;;;;;;3.5;2.3;;;;;;;25.16;68.40137;936.9341;;;;
2023/07/12 14:19:10;;;;;;;3.5;2.3;;;;;;;25.24;66.78613;937.0118;;;;
2023/07/12 14:21:35;;;;;;;3.7;1.9;;;;;;;25.23;61.44727;936.8753;;;;
2023/07/12 14:24:04;;;;;;;2.3;2;;;;;;;24.97;63.72559;936.9686;;;;
2023/07/12 14:26:29;;;;;;;3.2;2.1;;;;;;;25.03;65.45605;937.0461;;;;
2023/07/12 14:28:57;;;;;;;4.7;2.6;;;;;;;24.9;66.25098;937.2132;;;;
2023/07/12 14:31:23;;;;;;;2.9;1.7;;;;;;;24.72;60.58789;937.3362;;;;
2023/07/12 14:33:52;;;;;;;1.6;1.5;;;;;;;24.52;57.20117;937.2045;;;;
2023/07/12 14:36:17;;;;;;;1.7;1.1;;;;;;;24.33;57.89453;937.3139;;;;
2023/07/12 14:38:48;;;;;;;2.4;1.6;;;;;;;23.9;61.60742;937.553;;;;
2023/07/12 14:41:17;;;;;;;2.4;1.4;;;;;;;23.42;65.0791;937.6398;;;;
2023/07/12 14:43:47;;;;;;;2.8;1.4;;;;;;;22.84;66.88574;937.5941;;;;
2023/07/12 14:46:12;;;;;;;3.2;1.3;;;;;;;22.82;71.01563;937.4558;;;;
2023/07/12 14:48:41;;;;;;;2.2;1.3;;;;;;;22.77;71.2666;937.4297;;;;
2023/07/12 14:51:06;;;;;;;5;1.6;;;;;;;22.52;73.96094;937.3791;;;;
2023/07/12 14:53:32;;;;;;;3.2;1.7;;;;;;;22.13;77.47168;937.4059;;;;
2023/07/12 14:56:01;;;;;;;6.6;2;;;;;;;21.83;79.73828;937.6426;;;;
2023/07/12 14:58:26;;;;;;;3.7;2.2;;;;;;;21.91;81.32227;937.2739;;;;
2023/07/12 15:00:51;;;;;;;4.1;1.9;;;;;;;21.67;82.26367;937.4579;;;;
2023/07/12 15:03:19;;;;;;;4.4;2;;;;;;;21.5;81.41016;937.5519;;;;
2023/07/12 15:05:50;;;;;;;4.3;2.5;;;;;;;21.57;84.01172;937.5602;;;;
2023/07/12 15:08:15;;;;;;;3.6;1.8;;;;;;;21.1;84.81348;937.4281;;;;
2023/07/12 15:10:42;;;;;;;2.7;2.2;;;;;;;20.73;88.24609;937.3389;;;;
2023/07/12 15:13:11;;;;;;;4.6;2.6;;;;;;;20.81;91.15039;937.3219;;;;
2023/07/12 15:15:38;;;;;;;3.3;2.4;;;;;;;20.68;92.26953;937.6828;;;;
2023/07/12 15:18:03;;;;;;;3.7;2.4;;;;;;;20.62;91.23926;937.7612;;;;
2023/07/12 15:20:32;;;;;;;3;2.1;;;;;;;20.54;88.46777;937.7183;;;;
2023/07/12 15:22:56;;;;;;;4.4;2.6;;;;;;;20.63;93.32129;937.9531;;;;
2023/07/12 15:25:29;;;;;;;5.6;2.4;;;;;;;20.57;90.38672;938.079;;;;
2023/07/12 15:27:53;;;;;;;4.7;2.6;;;;;;;20.57;90.65625;937.9838;;;;
2023/07/12 15:30:24;;;;;;;5.7;2.5;;;;;;;20.56;91.32031;937.6394;;;;
2023/07/12 15:32:49;;;;;;;5.3;2.1;;;;;;;20.06;94.22754;936.9204;;;;
2023/07/12 15:35:22;;;;;;;6.6;2.4;;;;;;;19.92;96.95215;937.1651;;;;
2023/07/12 15:37:47;;;;;;;7.6;2.7;;;;;;;20.04;98.75195;937.2047;;;;
2023/07/12 15:40:15;;;;;;;2.9;2.5;;;;;;;19.99;98.17969;937.1397;;;;
2023/07/12 15:42:41;;;;;;;4.5;2.4;;;;;;;20.14;97.16113;937.1487;;;;
2023/07/12 15:45:18;;;;;;;2.9;2.4;;;;;;;20.27;95.67285;937.1969;;;;
2023/07/12 15:47:46;;;;;;;2.4;1.9;;;;;;;20.21;90.28027;937.2305;;;;